Sault, France

8:22 PM CET on January 24, 2017 (GMT +0100)
Cliffs | | Change Station

Elev 1250 ft 43.89 °N, 5.46 °E | Updated 6 seconds ago

Clear
Clear
27.5 °F
Feels Like 28 °F
N
0.0
Wind Variable Wind from West
Gusts 0.0 mph

Today
High -- | Low -- °F
--% Chance of Precip.
Yesterday
High -- | Low -- °F
Precip. -- in
Pressure 30.15 in
Visibility 5.6 miles
Clouds
Windchill 28 °F
Dew Point 20 °F
Humidity 72%
Rainfall 0.00 in
Snow Depth Not available.
8:03 AM 5:37 PM
Waning Crescent, 10% visible
METAR LFMO 241900Z AUTO 35021KT 9000 NSC M00/M06 Q1021 TEMPO 35030G45KT
Pressure 30.15 in
Visibility 5.6 miles
Clouds
Windchill 28 °F
Dew Point 20 °F
Humidity 72%
Rainfall 0.00 in
Snow Depth Not available.
8:03 AM 5:37 PM
Waning Crescent, 10% visible
METAR LFMO 241900Z AUTO 35021KT 9000 NSC M00/M06 Q1021 TEMPO 35030G45KT

Get Your Daily Forecast Email!

Thanks for signing up!

Be on the lookout for a verification email in your inbox.

You'll start receiving the daily forecast at 8 AM.

×

10-Day Weather Forecast

×

Almanac

Astronomy

Jan. 24, 2017 Rise Set
Actual Time
Civil Twilight
Nautical Twilight
Astronomical Twilight
Moon
Length of Visible Light
Length of Day
Tomorrow will be .
, % of the Moon is Illuminated

Today's Extremes

Country Highs Country Lows

Community

WunderPhotos

Upload Photos

1,962,540 photos uploaded!

WunderBlog® & News

Nearby

Air Quality

  Air Quality AQ Index Pollutant
Not available.

Snow Depth

Station Depth Elevation

Earthquake Activity

City Distance Mag. Time & Date
Minimum magnitude displayed is 2.5.

Coastal Water Temperatures

Place Temperature

Stations

Nearby Weather Stations

Station Location Temp. Windchill Dew Point Humidity Wind Precip. Elev Updated Type